createdAt,value
2019-03-12T00:04:58.068Z,98739.09
2019-03-12T00:10:03.680Z,98750.35
2019-03-12T00:15:09.153Z,98753.16
2019-03-12T00:20:14.313Z,98762.12
2019-03-12T00:25:20.551Z,98762.80
2019-03-12T00:30:25.703Z,98775.84
2019-03-12T00:35:30.924Z,98790.16
2019-03-12T00:40:36.556Z,98804.19
2019-03-12T00:45:41.707Z,98816.91
2019-03-12T00:50:46.858Z,98823.66
2019-03-12T00:55:52.450Z,98832.09
2019-03-12T01:00:57.610Z,98832.45
2019-03-12T01:06:03.688Z,98835.73
2019-03-12T01:11:09.120Z,98839.34
2019-03-12T01:16:14.306Z,98842.23
2019-03-12T01:21:19.733Z,98833.80
2019-03-12T01:26:25.663Z,98848.53
2019-03-12T01:31:30.820Z,98847.59
2019-03-12T01:36:36.046Z,98838.47
2019-03-12T01:41:41.197Z,98848.73
2019-03-12T01:46:46.376Z,98864.86
2019-03-12T01:51:52.934Z,98872.98
2019-03-12T01:56:58.128Z,98870.41
2019-03-12T02:02:03.294Z,98873.70
2019-03-12T02:07:08.764Z,98870.91
2019-03-12T02:12:14.351Z,98866.56
2019-03-12T02:17:20.325Z,98872.30
2019-03-12T02:22:25.598Z,98877.84
2019-03-12T02:27:31.475Z,98886.36
2019-03-12T02:32:36.645Z,98895.13
2019-03-12T02:37:41.806Z,98893.24
2019-03-12T02:42:48.030Z,98885.67
2019-03-12T02:47:53.308Z,98883.11
2019-03-12T02:52:59.189Z,98876.58
2019-03-12T02:58:05.678Z,98870.77
2019-03-12T03:03:10.949Z,98875.63
2019-03-12T03:08:18.516Z,98893.03
2019-03-12T03:13:23.711Z,98899.25
2019-03-12T03:18:29.020Z,98890.80
2019-03-12T03:23:34.168Z,98905.83
2019-03-12T03:28:39.619Z,98928.06
2019-03-12T03:33:45.208Z,98939.19
2019-03-12T03:38:50.348Z,98934.14
2019-03-12T03:43:55.528Z,98932.09
2019-03-12T03:49:01.562Z,98919.75
2019-03-12T03:54:07.693Z,98925.00
2019-03-12T03:59:12.920Z,98935.94
2019-03-12T04:04:18.136Z,98936.58
2019-03-12T04:09:23.456Z,98940.54
2019-03-12T04:14:28.608Z,98938.68
2019-03-12T04:19:33.877Z,98949.33
2019-03-12T04:24:39.851Z,98956.25
2019-03-12T04:29:45.612Z,98959.95
2019-03-12T04:34:51.146Z,98959.89
2019-03-12T04:39:57.165Z,98966.50
2019-03-12T04:45:02.314Z,98964.25
2019-03-12T04:50:08.413Z,98968.28
2019-03-12T04:55:14.168Z,98967.33
2019-03-12T05:00:19.878Z,98964.16
2019-03-12T05:05:25.055Z,98968.77
2019-03-12T05:10:30.186Z,98956.66
2019-03-12T05:15:35.525Z,98954.05
2019-03-12T05:20:40.874Z,98963.06
2019-03-12T05:25:46.350Z,98963.25
2019-03-12T05:30:52.234Z,98968.47
2019-03-12T05:35:57.953Z,98969.04
2019-03-12T05:41:03.447Z,98962.00
2019-03-12T05:46:10.307Z,98964.35
2019-03-12T05:51:15.370Z,98959.75
2019-03-12T05:56:20.516Z,98963.17
2019-03-12T06:01:25.655Z,98970.36
2019-03-12T06:06:31.096Z,98971.09
2019-03-12T06:11:36.512Z,98966.08
2019-03-12T06:16:42.052Z,98961.18
2019-03-12T06:21:47.784Z,98960.77
2019-03-12T06:26:52.901Z,98961.55
2019-03-12T06:32:17.092Z,98952.05
2019-03-12T06:37:59.666Z,98961.72
2019-03-12T06:43:39.893Z,98958.90
2019-03-12T06:48:52.950Z,98950.94
2019-03-12T06:54:29.778Z,98945.94
2019-03-12T06:59:52.445Z,98940.69
2019-03-12T07:05:05.124Z,98938.90
2019-03-12T07:10:22.168Z,98935.91
2019-03-12T07:15:32.690Z,98930.86
2019-03-12T07:20:55.457Z,98926.27
2019-03-12T07:26:25.561Z,98926.70
2019-03-12T07:31:46.108Z,98925.58
2019-03-12T07:36:57.785Z,98922.41
2019-03-12T07:42:09.374Z,98909.55
2019-03-12T07:47:48.911Z,98910.18
2019-03-12T07:53:08.420Z,98904.20
2019-03-12T07:58:36.281Z,98901.80
2019-03-12T08:03:53.452Z,98898.04
2019-03-12T08:09:36.287Z,98901.28
2019-03-12T08:14:47.786Z,98897.14
2019-03-12T08:20:04.582Z,98894.82
2019-03-12T08:25:38.045Z,98890.16
2019-03-12T08:31:07.956Z,98894.14
2019-03-12T08:36:32.677Z,98878.70
2019-03-12T08:42:05.955Z,98866.56
2019-03-12T08:47:29.027Z,98873.41
2019-03-12T08:52:51.435Z,98863.13
2019-03-12T08:58:06.605Z,98840.14
2019-03-12T09:03:37.027Z,98834.72
2019-03-12T09:09:01.733Z,98835.05
2019-03-12T09:14:30.856Z,98823.56
2019-03-12T09:19:49.488Z,98812.41
2019-03-12T09:25:15.393Z,98808.47
2019-03-12T09:30:31.495Z,98816.17
2019-03-12T09:35:58.760Z,98805.02
2019-03-12T09:41:35.018Z,98790.39
2019-03-12T09:47:00.625Z,98794.47
2019-03-12T09:52:26.849Z,98785.84
2019-03-12T09:57:50.203Z,98773.54
2019-03-12T10:03:13.334Z,98766.25
2019-03-12T10:08:40.947Z,98748.71
2019-03-12T10:14:02.512Z,98738.66
2019-03-12T10:19:29.404Z,98720.92
2019-03-12T10:24:52.452Z,98720.24
2019-03-12T10:30:04.673Z,98708.98
2019-03-12T10:35:20.995Z,98703.72
2019-03-12T10:40:47.902Z,98694.75
2019-03-12T10:46:02.313Z,98690.99
2019-03-12T10:51:07.744Z,98683.35
2019-03-12T10:56:13.514Z,98671.77
2019-03-12T11:01:18.674Z,98667.73
2019-03-12T11:06:24.551Z,98661.43
2019-03-12T11:11:30.457Z,98653.77
2019-03-12T11:16:35.867Z,98635.95
2019-03-12T11:21:41.383Z,98635.59
2019-03-12T11:26:46.986Z,98639.02
2019-03-12T11:31:52.126Z,98637.02
2019-03-12T11:36:57.182Z,98600.47
2019-03-12T11:42:02.359Z,98588.77
2019-03-12T11:47:07.454Z,98576.18
2019-03-12T11:52:12.996Z,98568.50
2019-03-12T11:57:18.497Z,98560.05
2019-03-12T12:02:23.987Z,98545.25
2019-03-12T12:07:29.009Z,98538.05
2019-03-12T12:12:34.148Z,98526.00
2019-03-12T12:17:39.547Z,98508.22
2019-03-12T12:22:44.644Z,98497.52
2019-03-12T12:27:49.833Z,98488.12
2019-03-12T12:32:54.983Z,98474.02
2019-03-12T12:38:00.142Z,98448.83
2019-03-12T12:43:05.662Z,98443.84
2019-03-12T12:48:10.894Z,98428.83
2019-03-12T12:53:16.066Z,98407.91
2019-03-12T12:58:21.124Z,98393.22
2019-03-12T13:03:26.193Z,98374.52
2019-03-12T13:08:31.808Z,98368.05
2019-03-12T13:13:36.958Z,98382.73
2019-03-12T13:18:42.093Z,98351.86
2019-03-12T13:23:48.191Z,98329.25
2019-03-12T13:28:53.486Z,98325.81
2019-03-12T13:33:59.014Z,98306.67
2019-03-12T13:39:07.810Z,98297.63
2019-03-12T13:44:14.474Z,98284.04
2019-03-12T13:49:19.765Z,98274.29
2019-03-12T13:54:25.605Z,98254.07
2019-03-12T13:59:31.027Z,98257.84
2019-03-12T14:04:36.812Z,98238.02
2019-03-12T14:09:42.084Z,98241.88
2019-03-12T14:14:47.465Z,98236.20
2019-03-12T14:19:52.798Z,98217.27
2019-03-12T14:24:57.869Z,98215.86
2019-03-12T14:30:04.193Z,98196.64
2019-03-12T14:35:10.071Z,98193.60
2019-03-12T14:40:15.204Z,98182.87
2019-03-12T14:45:26.574Z,98180.00
2019-03-12T14:50:31.852Z,98160.20
2019-03-12T14:55:37.133Z,98153.70
2019-03-12T15:00:42.803Z,98139.38
2019-03-12T15:05:47.990Z,98124.56
2019-03-12T15:10:54.005Z,98112.28
2019-03-12T15:15:59.217Z,98104.58
2019-03-12T15:21:04.550Z,98095.12
2019-03-12T15:26:09.798Z,98075.28
2019-03-12T15:31:14.964Z,98079.24
2019-03-12T15:36:20.521Z,98060.45
2019-03-12T15:41:25.946Z,98037.09
2019-03-12T15:46:31.078Z,98012.56
2019-03-12T15:51:36.911Z,97991.27
2019-03-12T15:56:42.806Z,97991.26
2019-03-12T16:01:49.015Z,97977.67
2019-03-12T16:07:01.155Z,97968.34
2019-03-12T16:12:01.648Z,97940.36
2019-03-12T16:17:07.660Z,97935.97
2019-03-12T16:22:12.852Z,97913.99
2019-03-12T16:27:18.732Z,97904.87
2019-03-12T16:32:23.791Z,97877.69
2019-03-12T16:37:29.246Z,97864.12
2019-03-12T16:42:35.376Z,97840.51
2019-03-12T16:47:40.532Z,97843.03
2019-03-12T16:52:46.610Z,97830.28
2019-03-12T16:57:52.038Z,97816.29
2019-03-12T17:02:57.399Z,97802.33
2019-03-12T17:08:03.330Z,97788.73
2019-03-12T17:13:08.611Z,97778.72
2019-03-12T17:18:14.647Z,97771.11
2019-03-12T17:23:19.903Z,97765.73
2019-03-12T17:28:26.171Z,97748.94
2019-03-12T17:33:32.357Z,97723.73
2019-03-12T17:38:46.449Z,97699.01
2019-03-12T17:43:44.439Z,97696.48
2019-03-12T17:48:49.648Z,97681.29
2019-03-12T17:53:55.300Z,97669.84
2019-03-12T17:59:00.373Z,97665.20
2019-03-12T18:04:05.571Z,97647.28
2019-03-12T18:09:10.749Z,97619.81
2019-03-12T18:14:16.314Z,97604.83
2019-03-12T18:19:21.821Z,97599.78
2019-03-12T18:24:27.259Z,97588.93
2019-03-12T18:29:32.320Z,97578.22
2019-03-12T18:34:37.433Z,97559.75
2019-03-12T18:39:43.980Z,97547.94
2019-03-12T18:44:49.396Z,97532.92
2019-03-12T18:49:54.821Z,97522.39
2019-03-12T18:55:01.720Z,97509.05
2019-03-12T19:00:08.572Z,97498.20
2019-03-12T19:05:14.540Z,97499.85
2019-03-12T19:10:19.987Z,97475.70
2019-03-12T19:15:25.122Z,97482.72
2019-03-12T19:20:33.030Z,97468.69
2019-03-12T19:25:39.065Z,97454.83
2019-03-12T19:30:44.215Z,97430.34
2019-03-12T19:35:49.436Z,97408.53
2019-03-12T19:40:55.611Z,97407.66
2019-03-12T19:46:01.451Z,97398.47
2019-03-12T19:51:06.771Z,97380.97
2019-03-12T19:56:11.920Z,97358.51
2019-03-12T20:01:17.980Z,97343.80
2019-03-12T20:06:23.602Z,97332.73
2019-03-12T20:12:28.156Z,97331.30
2019-03-12T20:18:10.430Z,97304.96
2019-03-12T20:23:50.381Z,97276.34
2019-03-12T20:29:33.135Z,97246.19
2019-03-12T20:35:26.107Z,97256.08
2019-03-12T20:41:21.068Z,97245.14
2019-03-12T20:47:20.354Z,97243.59
2019-03-12T20:53:09.659Z,97216.05
2019-03-12T20:58:57.446Z,97199.56
2019-03-12T21:04:31.819Z,97204.55
2019-03-12T21:10:08.385Z,97202.84
2019-03-12T21:15:39.648Z,97169.93
2019-03-12T21:22:03.156Z,97166.14
2019-03-12T21:28:02.304Z,97169.80
2019-03-12T21:33:15.248Z,97165.70
2019-03-12T21:38:15.350Z,97138.73
2019-03-12T21:43:20.493Z,97119.26
2019-03-12T21:48:25.485Z,97105.65
2019-03-12T21:53:30.626Z,97082.45
2019-03-12T21:58:36.101Z,97072.16
2019-03-12T22:03:41.558Z,97049.80
2019-03-12T22:08:46.688Z,97027.41
2019-03-12T22:13:51.820Z,97034.14
2019-03-12T22:18:57.276Z,97021.19
2019-03-12T22:24:06.580Z,97011.52
2019-03-12T22:29:11.736Z,97012.20
2019-03-12T22:34:16.855Z,97005.91
2019-03-12T22:39:22.189Z,96983.95
2019-03-12T22:44:27.604Z,96972.31
2019-03-12T22:49:32.748Z,96945.66
2019-03-12T22:54:38.111Z,96938.34
2019-03-12T22:59:43.172Z,96931.34
2019-03-12T23:05:06.626Z,96917.16
2019-03-12T23:10:31.155Z,96915.66
2019-03-12T23:15:36.930Z,96906.17
2019-03-12T23:20:42.461Z,96921.08
2019-03-12T23:25:48.010Z,96920.34
2019-03-12T23:30:53.713Z,96910.79
2019-03-12T23:35:59.407Z,96894.72
2019-03-12T23:41:04.837Z,96889.80
2019-03-12T23:46:09.962Z,96894.09
2019-03-12T23:51:15.449Z,96910.93
2019-03-12T23:56:20.592Z,96901.86
